createdAt,value
2022-10-05T00:02:38.346Z,4.90
2022-10-05T00:05:41.021Z,5.07
2022-10-05T00:08:44.180Z,5.00
2022-10-05T00:11:49.304Z,4.80
2022-10-05T00:14:54.433Z,4.53
2022-10-05T00:17:57.017Z,4.60
2022-10-05T00:20:59.597Z,4.93
2022-10-05T00:24:02.492Z,4.67
2022-10-05T00:27:15.687Z,4.70
2022-10-05T00:30:20.178Z,4.47
2022-10-05T00:33:22.659Z,4.67
2022-10-05T00:36:26.096Z,4.60
2022-10-05T00:39:29.940Z,4.83
2022-10-05T00:42:47.785Z,4.60
2022-10-05T00:45:56.069Z,4.13
2022-10-05T00:49:04.177Z,4.57
2022-10-05T00:52:20.415Z,4.50
2022-10-05T00:55:33.507Z,4.90
2022-10-05T00:58:55.643Z,4.77
2022-10-05T01:02:03.857Z,4.10
2022-10-05T01:05:13.367Z,4.53
2022-10-05T01:08:28.908Z,4.67
2022-10-05T01:11:38.141Z,4.57
2022-10-05T01:14:48.113Z,4.90
2022-10-05T01:17:58.030Z,5.30
2022-10-05T01:21:07.157Z,4.60
2022-10-05T01:24:41.299Z,4.60
2022-10-05T01:27:51.850Z,4.57
2022-10-05T01:31:01.748Z,5.27
2022-10-05T01:34:11.428Z,4.93
2022-10-05T01:37:23.159Z,4.33
2022-10-05T01:40:34.854Z,4.73
2022-10-05T01:43:45.973Z,4.23
2022-10-05T01:46:56.445Z,5.10
2022-10-05T01:50:04.480Z,4.27
2022-10-05T01:53:13.645Z,4.40
2022-10-05T01:56:22.650Z,4.47
2022-10-05T01:59:34.951Z,4.97
2022-10-05T02:02:42.347Z,4.70
2022-10-05T02:05:51.470Z,5.10
2022-10-05T02:08:59.547Z,5.00
2022-10-05T02:12:07.664Z,4.83
2022-10-05T02:15:15.592Z,4.83
2022-10-05T02:18:22.130Z,4.90
2022-10-05T02:21:25.963Z,4.80
2022-10-05T02:24:33.314Z,4.40
2022-10-05T02:27:41.855Z,4.70
2022-10-05T02:30:50.121Z,4.93
2022-10-05T02:33:52.733Z,4.47
2022-10-05T02:37:15.452Z,4.10
2022-10-05T02:40:32.154Z,4.27
2022-10-05T02:43:45.421Z,4.10
2022-10-05T02:46:57.711Z,4.43
2022-10-05T02:50:09.223Z,4.60
2022-10-05T02:53:21.333Z,4.60
2022-10-05T02:56:30.930Z,4.30
2022-10-05T02:59:38.888Z,4.27
2022-10-05T03:02:48.476Z,4.73
2022-10-05T03:05:56.771Z,4.50
2022-10-05T03:09:03.879Z,4.50
2022-10-05T03:12:16.021Z,3.87
2022-10-05T03:15:32.268Z,4.40
2022-10-05T03:18:49.212Z,4.40
2022-10-05T03:21:59.784Z,4.63
2022-10-05T03:25:22.894Z,4.27
2022-10-05T03:28:33.596Z,4.60
2022-10-05T03:31:44.725Z,4.80
2022-10-05T03:34:53.875Z,4.37
2022-10-05T03:38:18.765Z,4.23
2022-10-05T03:41:27.871Z,4.63
2022-10-05T03:44:41.948Z,4.17
2022-10-05T03:47:50.917Z,4.13
2022-10-05T03:51:02.950Z,4.57
2022-10-05T03:54:12.705Z,4.27
2022-10-05T03:57:19.465Z,4.63
2022-10-05T04:00:24.223Z,4.57
2022-10-05T04:03:35.003Z,4.83
2022-10-05T04:06:46.455Z,4.33
2022-10-05T04:09:53.658Z,4.83
2022-10-05T04:13:02.237Z,4.63
2022-10-05T04:16:11.838Z,4.50
2022-10-05T04:19:19.032Z,4.20
2022-10-05T04:22:26.414Z,4.47
2022-10-05T04:25:33.146Z,4.93
2022-10-05T04:28:44.430Z,4.77
2022-10-05T04:31:58.390Z,5.10
2022-10-05T04:35:16.657Z,4.40
2022-10-05T04:38:28.947Z,5.50
2022-10-05T04:41:58.994Z,4.83
2022-10-05T04:45:09.347Z,4.63
2022-10-05T04:48:46.675Z,5.30
2022-10-05T04:51:57.429Z,5.27
2022-10-05T04:55:10.449Z,5.33
2022-10-05T04:58:23.896Z,4.83
2022-10-05T05:02:03.256Z,5.07
2022-10-05T05:05:28.311Z,4.83
2022-10-05T05:08:46.960Z,5.23
2022-10-05T05:12:04.665Z,5.20
2022-10-05T05:15:37.498Z,5.60
2022-10-05T05:19:13.850Z,5.40
2022-10-05T05:22:25.928Z,5.70
2022-10-05T05:25:40.725Z,5.27
2022-10-05T05:28:52.113Z,5.67
2022-10-05T05:32:01.396Z,5.60
2022-10-05T05:35:23.193Z,5.50
2022-10-05T05:38:32.290Z,6.17
2022-10-05T05:41:39.614Z,5.50
2022-10-05T05:44:48.893Z,5.60
2022-10-05T05:47:54.736Z,5.57
2022-10-05T05:51:01.392Z,5.97
2022-10-05T05:54:25.614Z,5.77
2022-10-05T05:57:32.978Z,5.70
2022-10-05T06:00:43.683Z,5.60
2022-10-05T06:03:49.883Z,5.63
2022-10-05T06:06:54.911Z,5.80
2022-10-05T06:10:02.577Z,6.23
2022-10-05T06:13:10.943Z,6.10
2022-10-05T06:16:20.572Z,6.10
2022-10-05T06:19:24.825Z,5.87
2022-10-05T06:22:33.570Z,6.30
2022-10-05T06:25:43.414Z,6.53
2022-10-05T06:28:51.629Z,6.23
2022-10-05T06:32:06.505Z,6.00
2022-10-05T06:35:17.406Z,6.67
2022-10-05T06:38:45.109Z,5.67
2022-10-05T06:42:02.706Z,6.60
2022-10-05T06:45:10.733Z,6.10
2022-10-05T06:48:21.945Z,6.10
2022-10-05T06:51:33.158Z,5.60
2022-10-05T06:54:46.063Z,6.23
2022-10-05T06:58:01.252Z,6.00
2022-10-05T07:01:10.619Z,5.90
2022-10-05T07:04:38.337Z,5.93
2022-10-05T07:07:47.931Z,5.93
2022-10-05T07:11:05.248Z,5.70
2022-10-05T07:14:23.561Z,5.63
2022-10-05T07:17:42.477Z,5.27
2022-10-05T07:20:55.413Z,5.63
2022-10-05T07:24:09.295Z,5.40
2022-10-05T07:27:18.233Z,6.13
2022-10-05T07:30:21.290Z,5.80
2022-10-05T07:33:29.895Z,6.27
2022-10-05T07:36:58.673Z,6.20
2022-10-05T07:40:11.507Z,6.37
2022-10-05T07:43:51.116Z,5.43
2022-10-05T07:46:57.299Z,5.43
2022-10-05T07:50:04.045Z,5.73
2022-10-05T07:53:16.661Z,6.03
2022-10-05T07:56:24.242Z,5.20
2022-10-05T07:59:33.515Z,5.33
2022-10-05T08:02:42.928Z,5.40
2022-10-05T08:05:47.141Z,5.20
2022-10-05T08:08:57.298Z,4.93
2022-10-05T08:12:08.605Z,5.43
2022-10-05T08:15:16.395Z,5.77
2022-10-05T08:18:37.438Z,5.20
2022-10-05T08:21:44.702Z,4.90
2022-10-05T08:24:58.715Z,5.20
2022-10-05T08:28:09.474Z,5.03
2022-10-05T08:31:20.621Z,5.20
2022-10-05T08:34:29.621Z,5.20
2022-10-05T08:37:35.448Z,5.10
2022-10-05T08:41:18.359Z,4.97
2022-10-05T08:44:55.958Z,4.70
2022-10-05T08:48:31.803Z,5.30
2022-10-05T08:51:50.476Z,4.90
2022-10-05T08:55:20.651Z,5.23
2022-10-05T08:58:58.331Z,5.50
2022-10-05T09:02:18.242Z,5.43
2022-10-05T09:05:51.550Z,6.00
2022-10-05T09:09:39.977Z,5.60
2022-10-05T09:13:12.364Z,5.27
2022-10-05T09:16:45.459Z,5.53
2022-10-05T09:20:00.790Z,5.53
2022-10-05T09:23:14.492Z,5.10
2022-10-05T09:26:44.270Z,4.63
2022-10-05T09:30:11.582Z,4.57
2022-10-05T09:33:33.673Z,4.70
2022-10-05T09:37:20.038Z,5.03
2022-10-05T09:40:59.917Z,4.87
2022-10-05T09:44:29.904Z,4.53
2022-10-05T09:48:00.856Z,4.80
2022-10-05T09:51:36.922Z,4.77
2022-10-05T09:55:14.372Z,4.20
2022-10-05T09:58:53.048Z,4.57
2022-10-05T10:02:14.016Z,4.40
2022-10-05T10:05:33.125Z,3.73
2022-10-05T10:08:46.564Z,4.03
2022-10-05T10:12:07.345Z,4.37
2022-10-05T10:15:34.213Z,4.43
2022-10-05T10:19:03.631Z,4.10
2022-10-05T10:22:22.808Z,3.90
2022-10-05T10:25:53.170Z,3.97
2022-10-05T10:29:16.915Z,3.90
2022-10-05T10:32:50.693Z,4.10
2022-10-05T10:36:01.658Z,4.17
2022-10-05T10:39:13.281Z,3.97
2022-10-05T10:42:33.334Z,3.70
2022-10-05T10:45:49.095Z,3.93
2022-10-05T10:49:10.353Z,4.40
2022-10-05T10:52:25.820Z,4.07
2022-10-05T10:55:33.363Z,4.07
2022-10-05T10:58:58.724Z,4.10
2022-10-05T11:02:26.991Z,4.00
2022-10-05T11:05:56.672Z,3.57
2022-10-05T11:09:19.856Z,3.97
2022-10-05T11:12:56.213Z,4.23
2022-10-05T11:16:22.171Z,3.97
2022-10-05T11:20:02.973Z,3.83
2022-10-05T11:23:34.160Z,4.47
2022-10-05T11:27:07.436Z,3.87
2022-10-05T11:30:52.953Z,3.70
2022-10-05T11:34:42.084Z,3.80
2022-10-05T11:38:07.521Z,3.83
2022-10-05T11:41:33.828Z,3.73
2022-10-05T11:45:11.779Z,3.60
2022-10-05T11:48:34.366Z,3.60
2022-10-05T11:51:49.353Z,4.07
2022-10-05T11:55:10.939Z,3.47
2022-10-05T11:58:20.920Z,3.40
2022-10-05T12:01:30.893Z,3.37
2022-10-05T12:04:46.213Z,3.60
2022-10-05T12:08:07.651Z,3.00
2022-10-05T12:11:30.529Z,3.73
2022-10-05T12:14:42.830Z,3.43
2022-10-05T12:17:51.537Z,3.20
2022-10-05T12:20:59.901Z,3.10
2022-10-05T12:24:14.023Z,3.67
2022-10-05T12:27:21.480Z,3.53
2022-10-05T12:30:33.672Z,3.37
2022-10-05T12:33:47.044Z,3.17
2022-10-05T12:37:04.425Z,3.93
2022-10-05T12:40:23.050Z,3.50
2022-10-05T12:43:34.340Z,3.50
2022-10-05T12:46:44.101Z,3.20
2022-10-05T12:50:02.914Z,3.33
2022-10-05T12:53:25.494Z,3.37
2022-10-05T12:56:40.685Z,3.03
2022-10-05T12:59:50.079Z,3.33
2022-10-05T13:02:58.953Z,3.40
2022-10-05T13:06:15.216Z,2.80
2022-10-05T13:09:23.921Z,2.80
2022-10-05T13:12:38.183Z,2.87
2022-10-05T13:15:50.631Z,3.00
2022-10-05T13:19:10.351Z,2.57
2022-10-05T13:22:36.692Z,2.30
2022-10-05T13:25:47.697Z,2.70
2022-10-05T13:28:58.381Z,2.73
2022-10-05T13:32:07.184Z,2.90
2022-10-05T13:35:28.505Z,3.20
2022-10-05T13:38:45.280Z,2.80
2022-10-05T13:41:54.399Z,2.40
2022-10-05T13:45:04.386Z,2.80
2022-10-05T13:48:19.792Z,2.60
2022-10-05T13:51:25.167Z,2.83
2022-10-05T13:54:37.259Z,2.60
2022-10-05T13:57:49.656Z,3.03
2022-10-05T14:00:56.451Z,2.80
2022-10-05T14:04:07.577Z,2.97
2022-10-05T14:07:24.782Z,2.47
2022-10-05T14:10:35.091Z,2.53
2022-10-05T14:13:47.743Z,2.73
2022-10-05T14:16:53.425Z,2.60
2022-10-05T14:19:59.749Z,2.60
2022-10-05T14:23:04.946Z,2.20
2022-10-05T14:26:18.968Z,2.27
2022-10-05T14:29:25.566Z,2.10
2022-10-05T14:32:32.367Z,2.07
2022-10-05T14:35:48.892Z,2.63
2022-10-05T14:38:53.931Z,2.17
2022-10-05T14:41:56.710Z,2.40
2022-10-05T14:45:01.011Z,2.20
2022-10-05T14:48:11.502Z,2.43
2022-10-05T14:51:25.441Z,2.20
2022-10-05T14:54:41.741Z,2.27
2022-10-05T14:57:54.019Z,2.33
2022-10-05T15:01:02.724Z,2.17
2022-10-05T15:04:24.896Z,3.13
2022-10-05T15:07:38.794Z,2.97
2022-10-05T15:10:43.905Z,3.00
2022-10-05T15:13:47.462Z,3.10
2022-10-05T15:16:53.738Z,3.00
2022-10-05T15:20:05.089Z,2.30
2022-10-05T15:23:24.779Z,3.00
2022-10-05T15:26:41.101Z,2.13
2022-10-05T15:29:56.473Z,2.60
2022-10-05T15:33:12.843Z,2.30
2022-10-05T15:36:19.845Z,2.00
2022-10-05T15:39:34.688Z,2.27
2022-10-05T15:42:39.340Z,2.47
2022-10-05T15:45:53.755Z,2.23
2022-10-05T15:49:08.268Z,2.50
2022-10-05T15:52:23.866Z,2.47
2022-10-05T15:55:35.119Z,2.43
2022-10-05T15:58:51.915Z,2.43
2022-10-05T16:02:00.761Z,2.70
2022-10-05T16:05:19.857Z,2.43
2022-10-05T16:08:50.535Z,2.40
2022-10-05T16:12:03.318Z,2.20
2022-10-05T16:15:18.588Z,2.30
2022-10-05T16:18:46.192Z,2.40
2022-10-05T16:21:59.579Z,2.27
2022-10-05T16:25:15.900Z,3.03
2022-10-05T16:28:29.750Z,2.50
2022-10-05T16:31:38.183Z,2.30
2022-10-05T16:34:54.306Z,2.87
2022-10-05T16:38:06.788Z,2.70
2022-10-05T16:41:17.538Z,2.63
2022-10-05T16:44:31.238Z,2.80
2022-10-05T16:47:43.923Z,2.97
2022-10-05T16:50:59.435Z,2.60
2022-10-05T16:54:12.923Z,2.67
2022-10-05T16:57:22.110Z,2.87
2022-10-05T17:00:29.883Z,2.60
2022-10-05T17:03:48.362Z,2.90
2022-10-05T17:07:07.714Z,2.80
2022-10-05T17:10:47.658Z,2.60
2022-10-05T17:14:20.128Z,2.87
2022-10-05T17:17:38.469Z,3.23
2022-10-05T17:20:49.116Z,2.70
2022-10-05T17:23:57.767Z,2.83
2022-10-05T17:27:17.695Z,2.50
2022-10-05T17:30:36.363Z,2.90
2022-10-05T17:34:26.343Z,3.10
2022-10-05T17:37:36.973Z,3.30
2022-10-05T17:40:40.356Z,3.40
2022-10-05T17:44:32.956Z,3.13
2022-10-05T17:47:57.599Z,2.80
2022-10-05T17:51:17.715Z,2.97
2022-10-05T17:54:40.654Z,2.63
2022-10-05T17:57:43.206Z,2.40
2022-10-05T18:01:14.204Z,2.70
2022-10-05T18:04:33.622Z,2.23
2022-10-05T18:07:37.282Z,2.70
2022-10-05T18:11:00.030Z,2.63
2022-10-05T18:14:19.211Z,2.37
2022-10-05T18:17:38.290Z,2.60
2022-10-05T18:20:44.675Z,2.27
2022-10-05T18:24:01.057Z,2.70
2022-10-05T18:27:15.638Z,2.50
2022-10-05T18:30:22.309Z,2.60
2022-10-05T18:34:13.146Z,2.50
2022-10-05T18:37:31.539Z,2.83
2022-10-05T18:40:43.120Z,2.60
2022-10-05T18:43:57.184Z,2.80
2022-10-05T18:47:07.039Z,2.93
2022-10-05T18:50:24.322Z,2.90
2022-10-05T18:53:38.284Z,2.87
2022-10-05T18:56:46.419Z,3.07
2022-10-05T18:59:58.259Z,2.50
2022-10-05T19:03:08.199Z,2.40
2022-10-05T19:06:19.479Z,2.53
2022-10-05T19:09:39.490Z,2.30
2022-10-05T19:12:54.719Z,2.17
2022-10-05T19:16:14.532Z,2.07
2022-10-05T19:19:35.802Z,2.50
2022-10-05T19:22:55.680Z,2.73
2022-10-05T19:26:09.951Z,2.60
2022-10-05T19:29:23.923Z,2.60
2022-10-05T19:32:38.887Z,2.70
2022-10-05T19:35:58.053Z,2.40
2022-10-05T19:39:07.998Z,2.50
2022-10-05T19:42:31.264Z,2.67
2022-10-05T19:45:40.105Z,3.00
2022-10-05T19:48:45.483Z,4.83
2022-10-05T19:51:50.976Z,3.13
2022-10-05T19:55:12.077Z,3.20
2022-10-05T19:58:21.454Z,3.00
2022-10-05T20:01:26.344Z,3.43
2022-10-05T20:04:37.461Z,2.90
2022-10-05T20:07:40.922Z,4.13
2022-10-05T20:10:44.162Z,3.33
2022-10-05T20:14:11.492Z,3.13
2022-10-05T20:17:44.705Z,3.00
2022-10-05T20:20:49.325Z,2.50
2022-10-05T20:24:07.189Z,2.50
2022-10-05T20:27:37.077Z,2.50
2022-10-05T20:30:39.578Z,2.10
2022-10-05T20:33:43.374Z,2.27
2022-10-05T20:36:45.997Z,2.67
2022-10-05T20:39:48.830Z,2.10
2022-10-05T20:42:51.587Z,2.27
2022-10-05T20:45:54.093Z,2.40
2022-10-05T20:48:58.468Z,2.27
2022-10-05T20:52:01.151Z,2.70
2022-10-05T20:55:04.249Z,2.60
2022-10-05T20:58:08.809Z,1.93
2022-10-05T21:01:18.908Z,2.20
2022-10-05T21:04:24.831Z,2.23
2022-10-05T21:07:27.372Z,2.07
2022-10-05T21:10:29.880Z,1.93
2022-10-05T21:13:32.370Z,2.10
2022-10-05T21:16:38.077Z,2.10
2022-10-05T21:19:42.055Z,2.10
2022-10-05T21:22:44.561Z,1.80
2022-10-05T21:25:48.613Z,2.27
2022-10-05T21:28:51.125Z,2.23
2022-10-05T21:31:53.685Z,2.10
2022-10-05T21:34:57.561Z,2.13
2022-10-05T21:38:00.045Z,2.10
2022-10-05T21:41:02.548Z,2.03
2022-10-05T21:44:06.214Z,2.17
2022-10-05T21:47:08.750Z,1.93
2022-10-05T21:50:12.686Z,2.10
2022-10-05T21:53:18.169Z,1.70
2022-10-05T21:56:24.027Z,1.90
2022-10-05T21:59:30.178Z,1.97
2022-10-05T22:02:32.676Z,1.93
2022-10-05T22:05:36.812Z,1.63
2022-10-05T22:08:39.421Z,1.90
2022-10-05T22:11:41.905Z,2.13
2022-10-05T22:14:44.579Z,1.60
2022-10-05T22:17:47.063Z,1.63
2022-10-05T22:20:51.324Z,2.00
2022-10-05T22:23:53.860Z,1.70
2022-10-05T22:26:56.408Z,1.80
2022-10-05T22:29:59.102Z,1.87
2022-10-05T22:33:01.625Z,1.57
2022-10-05T22:36:07.119Z,1.90
2022-10-05T22:39:09.873Z,1.50
2022-10-05T22:42:12.380Z,1.77
2022-10-05T22:45:15.053Z,1.67
2022-10-05T22:48:17.542Z,1.70
2022-10-05T22:51:21.389Z,1.60
2022-10-05T22:54:28.725Z,1.50
2022-10-05T22:57:38.747Z,1.57
2022-10-05T23:00:57.470Z,1.60
2022-10-05T23:04:00.412Z,1.70
2022-10-05T23:07:04.391Z,1.90
2022-10-05T23:10:08.598Z,1.70
2022-10-05T23:13:11.087Z,1.80
2022-10-05T23:16:15.237Z,1.77
2022-10-05T23:19:17.791Z,2.27
2022-10-05T23:22:22.037Z,1.60
2022-10-05T23:25:25.534Z,1.20
2022-10-05T23:28:28.847Z,1.20
2022-10-05T23:31:33.435Z,1.10
2022-10-05T23:34:36.029Z,0.90
2022-10-05T23:37:40.894Z,0.90
2022-10-05T23:40:47.355Z,0.90
2022-10-05T23:43:50.585Z,0.70
2022-10-05T23:46:53.083Z,0.83
2022-10-05T23:49:56.155Z,0.80
2022-10-05T23:52:59.986Z,0.83
2022-10-05T23:56:02.790Z,0.70
2022-10-05T23:59:05.283Z,0.80
